Time;durP1;ratioP1;P1;durP2;ratioP2;P2;SDS_P1;SDS_P2;PMS_P1;PMS_P2;Temp;Humidity;BMP_temperature;BMP_pressure;BME280_temperature;BME280_humidity;BME280_pressure;Samples;Min_cycle;Max_cycle;Signal;HPM_P1;HPM_P2
2024/02/21 00:01:16;;;;;;;16.47;5.33;;;8.90;99.90;;;;;;5027931;28;20986;-76
2024/02/21 00:04:03;;;;;;;15.00;6.13;;;8.90;99.90;;;;;;5027401;28;20536;-76
2024/02/21 00:06:50;;;;;;;20.83;5.83;;;9.00;99.90;;;;;;5027039;28;20527;-76
2024/02/21 00:09:35;;;;;;;14.23;5.27;;;9.00;99.90;;;;;;5028587;28;20475;-76
2024/02/21 00:12:21;;;;;;;13.73;4.87;;;9.00;99.90;;;;;;5026043;28;20482;-75
2024/02/21 00:15:08;;;;;;;9.50;5.20;;;9.00;99.90;;;;;;5022879;28;20464;-75
2024/02/21 00:17:54;;;;;;;9.83;5.43;;;9.10;99.90;;;;;;5024444;28;20632;-76
2024/02/21 00:20:40;;;;;;;14.60;5.30;;;9.10;99.90;;;;;;5027838;28;20429;-76
2024/02/21 00:23:27;;;;;;;12.50;5.27;;;9.10;99.90;;;;;;5031064;28;20442;-76
2024/02/21 00:26:12;;;;;;;13.87;4.70;;;9.20;99.90;;;;;;5029194;28;20566;-75
2024/02/21 00:28:58;;;;;;;11.03;5.40;;;9.20;99.90;;;;;;5028360;28;20962;-75
2024/02/21 00:31:44;;;;;;;11.07;5.90;;;9.20;99.90;;;;;;5026081;28;21222;-76
2024/02/21 00:34:30;;;;;;;14.03;5.80;;;9.30;99.90;;;;;;5031676;28;20459;-73
2024/02/21 00:37:15;;;;;;;19.17;5.67;;;9.20;99.90;;;;;;5029112;28;20912;-75
2024/02/21 00:40:02;;;;;;;14.83;4.93;;;9.20;99.90;;;;;;5033084;28;20462;-76
2024/02/21 00:42:48;;;;;;;20.90;7.10;;;9.20;99.90;;;;;;5029212;28;20510;-76
2024/02/21 00:45:34;;;;;;;13.50;6.00;;;9.20;99.90;;;;;;5029198;28;20455;-75
2024/02/21 00:48:19;;;;;;;21.77;5.77;;;9.20;99.90;;;;;;5027316;28;20483;-75
2024/02/21 00:51:05;;;;;;;14.30;5.80;;;9.20;99.90;;;;;;5030806;28;20505;-76
2024/02/21 00:53:51;;;;;;;22.43;6.80;;;9.20;99.90;;;;;;5029123;28;20494;-76
2024/02/21 00:56:38;;;;;;;14.07;5.13;;;9.20;99.90;;;;;;5027354;28;20470;-76
2024/02/21 00:59:23;;;;;;;23.43;7.03;;;9.20;99.90;;;;;;5026255;28;20453;-75
2024/02/21 01:02:09;;;;;;;15.70;5.70;;;9.20;99.90;;;;;;5027006;28;21571;-76
2024/02/21 01:04:55;;;;;;;13.27;6.13;;;9.20;99.90;;;;;;5027292;28;20429;-75
2024/02/21 01:07:40;;;;;;;15.40;5.83;;;9.20;99.90;;;;;;5033605;28;20456;-74
2024/02/21 01:10:26;;;;;;;12.20;7.10;;;9.10;99.90;;;;;;5029292;28;20461;-74
2024/02/21 01:13:14;;;;;;;14.20;6.07;;;9.10;99.90;;;;;;5029244;28;20582;-75
2024/02/21 01:15:59;;;;;;;17.73;5.93;;;9.10;99.90;;;;;;5023761;28;20994;-74
2024/02/21 01:18:45;;;;;;;15.43;5.87;;;9.10;99.90;;;;;;5026609;28;20529;-76
2024/02/21 01:21:31;;;;;;;17.67;6.37;;;9.00;99.90;;;;;;5027990;28;20460;-75
2024/02/21 01:24:17;;;;;;;21.33;7.10;;;8.90;99.90;;;;;;5022785;28;20546;-75
2024/02/21 01:27:03;;;;;;;19.63;6.00;;;8.90;99.90;;;;;;5032585;28;20462;-74
2024/02/21 01:29:49;;;;;;;14.97;6.20;;;8.90;99.90;;;;;;5032931;28;20451;-75
2024/02/21 01:32:35;;;;;;;19.00;5.63;;;8.90;99.90;;;;;;5034029;28;20502;-75
2024/02/21 01:35:21;;;;;;;17.60;5.80;;;8.90;99.90;;;;;;5030459;28;20504;-74
2024/02/21 01:38:06;;;;;;;17.23;5.90;;;9.00;99.90;;;;;;5031708;23;20464;-86
2024/02/21 01:40:52;;;;;;;15.00;5.10;;;9.00;99.90;;;;;;5010882;28;20451;-86
2024/02/21 01:43:38;;;;;;;13.37;6.03;;;9.00;99.90;;;;;;5017568;28;20421;-87
2024/02/21 01:46:27;;;;;;;15.40;6.13;;;9.00;99.90;;;;;;5010616;28;20519;-86
2024/02/21 01:49:13;;;;;;;11.60;6.40;;;9.00;99.90;;;;;;5008828;28;20528;-86
2024/02/21 01:51:59;;;;;;;20.97;7.03;;;9.00;99.90;;;;;;5007597;28;20564;-86
2024/02/21 01:54:45;;;;;;;14.10;5.77;;;9.10;99.90;;;;;;5010236;28;20535;-87
2024/02/21 01:57:31;;;;;;;15.57;5.43;;;9.00;99.90;;;;;;5015537;28;22194;-86
2024/02/21 02:00:18;;;;;;;13.80;5.50;;;9.10;99.90;;;;;;5011333;28;20455;-85
2024/02/21 02:03:06;;;;;;;15.40;5.10;;;9.10;99.90;;;;;;5005273;28;20535;-85
2024/02/21 02:05:52;;;;;;;13.63;4.80;;;9.20;99.90;;;;;;4998705;28;20450;-87
2024/02/21 02:08:38;;;;;;;12.20;5.17;;;9.20;99.90;;;;;;5013652;28;21167;-86
2024/02/21 02:11:24;;;;;;;12.13;5.20;;;9.10;99.90;;;;;;5013579;28;20430;-87
2024/02/21 02:14:09;;;;;;;14.80;5.23;;;9.10;99.90;;;;;;5007027;28;20456;-85
2024/02/21 02:16:55;;;;;;;13.13;5.90;;;9.10;99.90;;;;;;5009830;28;20977;-86
2024/02/21 02:19:42;;;;;;;19.83;5.07;;;9.10;99.90;;;;;;5008551;28;20434;-86
2024/02/21 02:22:30;;;;;;;10.07;4.83;;;9.10;99.90;;;;;;5007497;28;20487;-86
2024/02/21 02:25:17;;;;;;;10.80;4.73;;;9.10;99.90;;;;;;5010081;28;20563;-86
2024/02/21 02:28:02;;;;;;;16.73;5.60;;;9.10;99.90;;;;;;5015503;28;20817;-86
2024/02/21 02:30:49;;;;;;;15.63;5.73;;;9.10;99.90;;;;;;5013457;28;20440;-86
2024/02/21 02:33:34;;;;;;;14.10;5.30;;;9.10;99.90;;;;;;5018020;28;20453;-86
2024/02/21 02:36:20;;;;;;;13.40;5.23;;;9.20;99.90;;;;;;5010900;28;20495;-86
2024/02/21 02:39:06;;;;;;;22.87;5.43;;;9.10;99.90;;;;;;5017033;28;20463;-86
2024/02/21 02:41:53;;;;;;;14.87;5.90;;;9.10;99.90;;;;;;5009429;28;20476;-87
2024/02/21 02:44:38;;;;;;;13.73;6.03;;;9.20;99.90;;;;;;5013690;28;20792;-85
2024/02/21 02:47:24;;;;;;;17.90;5.93;;;9.20;99.90;;;;;;5014657;28;20492;-86
2024/02/21 02:50:11;;;;;;;16.40;4.90;;;9.20;99.90;;;;;;5012761;28;20494;-86
2024/02/21 02:52:56;;;;;;;15.33;5.33;;;9.20;99.90;;;;;;5012906;28;21003;-87
2024/02/21 02:55:42;;;;;;;19.90;5.90;;;9.20;99.90;;;;;;5009793;28;20549;-85
2024/02/21 02:58:29;;;;;;;11.57;4.57;;;9.20;99.90;;;;;;5008822;28;20453;-86
2024/02/21 03:01:15;;;;;;;11.83;5.50;;;9.30;99.90;;;;;;5004622;28;21056;-85
2024/02/21 03:04:01;;;;;;;12.27;5.57;;;9.30;99.90;;;;;;5017142;28;20587;-86
2024/02/21 03:06:46;;;;;;;9.17;4.20;;;9.30;99.90;;;;;;5013814;28;20480;-87
2024/02/21 03:09:32;;;;;;;20.73;5.10;;;9.30;99.90;;;;;;5010005;28;20460;-85
2024/02/21 03:12:24;;;;;;;11.00;4.60;;;9.20;99.90;;;;;;5009807;28;20464;-84
2024/02/21 03:15:11;;;;;;;14.80;4.93;;;9.30;99.90;;;;;;5011475;28;20461;-86
2024/02/21 03:17:57;;;;;;;19.50;5.30;;;9.20;99.90;;;;;;5010002;28;20464;-84
2024/02/21 03:20:42;;;;;;;12.50;5.53;;;9.20;99.90;;;;;;5016465;28;20579;-86
2024/02/21 03:23:28;;;;;;;13.67;5.07;;;9.20;99.90;;;;;;5005729;28;20558;-86
2024/02/21 03:26:16;;;;;;;15.10;7.10;;;9.20;99.90;;;;;;5010174;28;21017;-85
2024/02/21 03:29:02;;;;;;;15.43;6.30;;;9.10;99.90;;;;;;5012363;28;20476;-86
2024/02/21 03:31:49;;;;;;;10.93;4.80;;;9.10;99.90;;;;;;5009156;28;20457;-87
2024/02/21 03:34:35;;;;;;;12.70;4.20;;;9.10;99.90;;;;;;5017585;28;20494;-86
2024/02/21 03:37:20;;;;;;;14.50;5.77;;;9.10;99.90;;;;;;5018272;28;20576;-87
2024/02/21 03:40:09;;;;;;;12.70;4.90;;;9.00;99.90;;;;;;5015154;28;20472;-87
2024/02/21 03:42:55;;;;;;;8.83;4.80;;;8.90;99.90;;;;;;5014800;28;20444;-86
2024/02/21 03:45:40;;;;;;;21.20;6.00;;;8.90;99.90;;;;;;5016523;28;20455;-86
2024/02/21 03:48:27;;;;;;;11.43;4.90;;;8.90;99.90;;;;;;5015021;28;20431;-87
2024/02/21 03:51:13;;;;;;;13.90;5.13;;;8.90;99.90;;;;;;5020236;28;20434;-86
2024/02/21 03:53:59;;;;;;;15.87;5.10;;;8.90;99.90;;;;;;5015142;28;21096;-86
2024/02/21 03:56:45;;;;;;;24.90;5.80;;;8.90;99.90;;;;;;5013342;28;21008;-85
2024/02/21 03:59:30;;;;;;;13.13;5.93;;;9.00;99.90;;;;;;5005029;28;20554;-86
2024/02/21 04:02:17;;;;;;;11.77;4.80;;;9.00;99.90;;;;;;5019251;28;20545;-87
2024/02/21 04:05:05;;;;;;;15.60;5.50;;;9.00;99.90;;;;;;5018566;28;20451;-87
2024/02/21 04:07:52;;;;;;;11.53;4.90;;;9.00;99.90;;;;;;5016822;28;20504;-86
2024/02/21 04:10:37;;;;;;;12.43;5.93;;;9.00;99.90;;;;;;5021022;28;20436;-86
2024/02/21 04:13:23;;;;;;;18.87;6.13;;;9.00;99.90;;;;;;5013150;28;20475;-85
2024/02/21 04:16:08;;;;;;;13.87;4.67;;;9.10;99.90;;;;;;5018092;28;20450;-87
2024/02/21 04:18:54;;;;;;;14.70;5.07;;;9.00;99.90;;;;;;5011658;28;20451;-84
2024/02/21 04:21:41;;;;;;;14.73;4.63;;;9.10;99.90;;;;;;5020060;28;20439;-86
2024/02/21 04:24:27;;;;;;;12.60;4.70;;;9.10;99.90;;;;;;5011805;28;20456;-85
2024/02/21 04:27:13;;;;;;;10.90;4.40;;;9.10;99.90;;;;;;5018570;28;20870;-87
2024/02/21 04:29:58;;;;;;;18.20;6.87;;;9.10;99.90;;;;;;5023184;28;20438;-86
2024/02/21 04:32:44;;;;;;;17.00;4.87;;;9.20;99.90;;;;;;5016746;28;20451;-87
2024/02/21 04:35:30;;;;;;;12.67;5.70;;;9.10;99.90;;;;;;5017960;28;20460;-86
2024/02/21 04:38:17;;;;;;;13.07;5.93;;;9.10;99.90;;;;;;5015208;28;20439;-86
2024/02/21 04:41:02;;;;;;;14.60;5.50;;;9.10;99.90;;;;;;5012564;28;20434;-85
2024/02/21 04:43:49;;;;;;;9.70;5.03;;;9.00;99.90;;;;;;5015091;28;20566;-89
2024/02/21 04:46:34;;;;;;;9.90;4.93;;;9.00;99.90;;;;;;5006241;28;20504;-87
2024/02/21 04:49:20;;;;;;;13.40;5.50;;;8.90;99.90;;;;;;5010536;28;20984;-86
2024/02/21 04:52:06;;;;;;;14.90;5.30;;;8.90;99.90;;;;;;5010928;28;20460;-87
2024/02/21 04:54:53;;;;;;;15.27;5.17;;;8.90;99.90;;;;;;5009797;28;20855;-86
2024/02/21 04:57:39;;;;;;;18.30;5.60;;;9.00;99.90;;;;;;5011573;28;20475;-85
2024/02/21 05:00:24;;;;;;;12.47;5.33;;;9.00;99.90;;;;;;5006594;28;20524;-86
2024/02/21 05:03:11;;;;;;;15.10;4.50;;;9.00;99.90;;;;;;5016549;28;20470;-86
2024/02/21 05:05:56;;;;;;;13.70;5.60;;;9.00;99.90;;;;;;5012666;28;20514;-86
2024/02/21 05:08:42;;;;;;;13.87;4.60;;;9.00;99.90;;;;;;5014766;28;20451;-87
2024/02/21 05:11:29;;;;;;;15.23;4.17;;;9.00;99.90;;;;;;5013803;28;20611;-86
2024/02/21 05:14:14;;;;;;;18.60;5.70;;;9.00;99.90;;;;;;5015705;28;20589;-85
2024/02/21 05:17:00;;;;;;;10.87;4.53;;;9.00;99.90;;;;;;5009481;28;20492;-86
2024/02/21 05:19:46;;;;;;;11.87;4.60;;;8.90;99.90;;;;;;5016000;28;20518;-86
2024/02/21 05:22:32;;;;;;;8.73;4.07;;;8.90;99.90;;;;;;5013797;28;20435;-87
2024/02/21 05:25:17;;;;;;;10.30;4.87;;;8.90;99.90;;;;;;5007671;28;20536;-86
2024/02/21 05:28:06;;;;;;;13.93;4.07;;;8.80;99.90;;;;;;5015702;28;20537;-86
2024/02/21 05:30:51;;;;;;;14.53;6.03;;;8.90;99.90;;;;;;5014270;28;20570;-85
2024/02/21 05:33:37;;;;;;;10.30;4.50;;;8.90;99.90;;;;;;5019630;28;20972;-85
2024/02/21 05:36:22;;;;;;;22.27;7.43;;;8.80;99.90;;;;;;5011664;28;21008;-87
2024/02/21 05:39:08;;;;;;;13.47;5.23;;;8.80;99.90;;;;;;5016261;28;20532;-86
2024/02/21 05:41:54;;;;;;;13.67;4.70;;;8.80;99.90;;;;;;5008550;28;20474;-87
2024/02/21 05:44:41;;;;;;;14.30;5.00;;;8.70;99.90;;;;;;5019246;28;20599;-86
2024/02/21 05:47:26;;;;;;;14.90;3.93;;;8.70;99.90;;;;;;5014319;28;20459;-86
2024/02/21 05:50:12;;;;;;;13.30;4.10;;;8.70;99.90;;;;;;5012877;28;20538;-83
2024/02/21 05:52:58;;;;;;;16.30;5.60;;;8.80;99.90;;;;;;5013095;28;20471;-87
2024/02/21 05:55:47;;;;;;;6.70;4.57;;;8.80;99.90;;;;;;5017957;28;20451;-86
2024/02/21 05:58:32;;;;;;;9.80;4.43;;;8.80;99.90;;;;;;5016751;28;20526;-87
2024/02/21 06:01:21;;;;;;;8.00;3.70;;;8.80;99.90;;;;;;5015826;28;20448;-86
2024/02/21 06:04:06;;;;;;;9.83;4.73;;;8.80;99.90;;;;;;5020468;28;20442;-86
2024/02/21 06:06:52;;;;;;;12.93;5.13;;;8.80;99.90;;;;;;5010683;28;20490;-86
2024/02/21 06:09:38;;;;;;;12.97;4.77;;;8.80;99.90;;;;;;5015785;28;20467;-87
2024/02/21 06:12:23;;;;;;;10.67;4.30;;;8.80;99.90;;;;;;5017122;28;20503;-86
2024/02/21 06:15:09;;;;;;;15.80;5.20;;;8.80;99.90;;;;;;5007798;28;20554;-86
2024/02/21 06:17:57;;;;;;;10.90;3.90;;;8.80;99.90;;;;;;5012485;28;20639;-87
2024/02/21 06:20:43;;;;;;;11.27;4.17;;;8.70;99.90;;;;;;5012598;28;20474;-86
2024/02/21 06:23:28;;;;;;;14.70;4.43;;;8.70;99.90;;;;;;5012838;28;20448;-86
2024/02/21 06:26:14;;;;;;;19.23;4.90;;;8.60;99.90;;;;;;5009340;28;20508;-87
2024/02/21 06:29:01;;;;;;;17.77;5.63;;;8.60;99.90;;;;;;5007556;28;20463;-86
2024/02/21 06:31:47;;;;;;;14.17;4.10;;;8.60;99.90;;;;;;5014583;28;20462;-87
2024/02/21 06:34:34;;;;;;;15.00;4.13;;;8.60;99.90;;;;;;5013344;28;20872;-85
2024/02/21 06:37:20;;;;;;;10.43;4.40;;;8.50;99.90;;;;;;5018425;28;20567;-87
2024/02/21 06:40:06;;;;;;;11.97;4.23;;;8.50;99.90;;;;;;5013089;28;20459;-85
2024/02/21 06:42:52;;;;;;;8.70;4.13;;;8.40;99.90;;;;;;5008904;28;20614;-87
2024/02/21 06:45:38;;;;;;;11.40;4.30;;;8.30;99.90;;;;;;5009431;28;20455;-86
2024/02/21 06:48:24;;;;;;;15.03;5.80;;;8.40;99.90;;;;;;5009939;28;20484;-87
2024/02/21 06:51:11;;;;;;;18.23;5.13;;;8.30;99.90;;;;;;5008144;28;20447;-86
2024/02/21 06:53:56;;;;;;;20.93;6.37;;;8.30;99.90;;;;;;5010567;28;20446;-86
2024/02/21 06:56:42;;;;;;;13.50;4.80;;;8.30;99.90;;;;;;5008837;28;20452;-87
2024/02/21 06:59:28;;;;;;;14.60;4.60;;;8.30;99.90;;;;;;5010414;28;20970;-86
2024/02/21 07:02:14;;;;;;;19.33;5.70;;;8.30;99.90;;;;;;5006775;28;20457;-86
2024/02/21 07:04:59;;;;;;;16.80;5.27;;;8.30;99.90;;;;;;5007232;28;20999;-85
2024/02/21 07:07:46;;;;;;;11.77;4.60;;;8.40;99.90;;;;;;5009974;28;20453;-86
2024/02/21 07:10:32;;;;;;;15.03;4.73;;;8.40;99.90;;;;;;5004993;28;20451;-86
2024/02/21 07:13:18;;;;;;;16.17;5.87;;;8.40;99.90;;;;;;5010018;28;20465;-85
2024/02/21 07:16:03;;;;;;;20.87;5.80;;;8.40;99.90;;;;;;5016312;28;20444;-85
2024/02/21 07:18:49;;;;;;;15.23;5.40;;;8.40;99.90;;;;;;5015272;28;20430;-87
2024/02/21 07:21:37;;;;;;;12.17;5.70;;;8.50;99.90;;;;;;5009151;28;20543;-86
2024/02/21 07:24:24;;;;;;;10.60;4.40;;;8.50;99.90;;;;;;5006557;28;20460;-87
2024/02/21 07:27:10;;;;;;;15.10;4.90;;;8.60;99.90;;;;;;5015701;28;20462;-86
2024/02/21 07:29:56;;;;;;;11.73;4.50;;;8.60;99.90;;;;;;5014577;28;20439;-87
2024/02/21 07:32:42;;;;;;;10.10;4.47;;;8.60;99.90;;;;;;5015490;28;20435;-87
2024/02/21 07:35:28;;;;;;;13.00;5.80;;;8.60;99.90;;;;;;5017675;28;20502;-87
2024/02/21 07:38:14;;;;;;;16.60;4.90;;;8.70;99.90;;;;;;5021646;28;20447;-86
2024/02/21 07:41:01;;;;;;;17.77;4.97;;;8.80;99.90;;;;;;5009565;28;20459;-86
2024/02/21 07:43:48;;;;;;;15.03;6.20;;;8.90;99.90;;;;;;5017549;28;20518;-86
2024/02/21 07:46:33;;;;;;;16.83;5.37;;;8.90;99.90;;;;;;5017294;28;20475;-86
2024/02/21 07:49:19;;;;;;;16.43;4.70;;;9.00;99.90;;;;;;5015212;28;20459;-85
2024/02/21 07:52:05;;;;;;;16.90;5.37;;;9.00;99.90;;;;;;5018673;28;20461;-87
2024/02/21 07:54:51;;;;;;;14.90;5.20;;;9.10;99.90;;;;;;5019299;28;20458;-87
2024/02/21 07:57:38;;;;;;;23.37;5.43;;;9.10;99.90;;;;;;5013654;28;20475;-86
2024/02/21 08:00:24;;;;;;;26.67;5.43;;;9.10;99.90;;;;;;5013554;28;20541;-86
2024/02/21 08:03:10;;;;;;;10.80;4.47;;;9.10;99.90;;;;;;5011623;28;20618;-87
2024/02/21 08:05:55;;;;;;;13.10;5.50;;;9.20;99.90;;;;;;5016135;28;20489;-86
2024/02/21 08:08:41;;;;;;;17.63;5.40;;;9.20;99.90;;;;;;5021182;28;20466;-86
2024/02/21 08:11:27;;;;;;;13.33;6.70;;;9.10;99.90;;;;;;5016418;28;20459;-87
2024/02/21 08:14:15;;;;;;;19.60;4.90;;;9.10;99.90;;;;;;5017976;28;20821;-87
2024/02/21 08:17:01;;;;;;;8.03;4.87;;;9.00;99.90;;;;;;5010407;28;20480;-87
2024/02/21 08:19:49;;;;;;;12.43;4.80;;;9.00;99.90;;;;;;5013780;28;20439;-85
2024/02/21 08:22:34;;;;;;;19.30;5.63;;;9.00;99.90;;;;;;5012757;28;21279;-88
2024/02/21 08:25:20;;;;;;;10.03;4.87;;;9.10;99.90;;;;;;5017795;28;20450;-87
2024/02/21 08:28:07;;;;;;;14.60;5.10;;;9.10;99.90;;;;;;5007877;28;20481;-86
2024/02/21 08:30:54;;;;;;;13.63;5.23;;;9.10;99.90;;;;;;5010419;28;20456;-86
2024/02/21 08:33:39;;;;;;;12.47;5.20;;;9.00;99.90;;;;;;5014220;28;20484;-86
2024/02/21 08:36:25;;;;;;;16.77;6.20;;;9.00;99.90;;;;;;5017110;28;20471;-87
2024/02/21 08:39:11;;;;;;;16.63;6.00;;;9.00;99.90;;;;;;5016219;28;20456;-87
2024/02/21 08:41:57;;;;;;;14.03;5.37;;;8.80;99.90;;;;;;5017057;28;20456;-87
2024/02/21 08:44:43;;;;;;;19.00;5.00;;;8.90;99.90;;;;;;5009830;28;20454;-87
2024/02/21 08:47:30;;;;;;;12.00;4.80;;;8.90;99.90;;;;;;5009951;28;21161;-87
2024/02/21 08:50:16;;;;;;;21.70;6.27;;;9.00;99.90;;;;;;5010619;28;20836;-86
2024/02/21 08:53:01;;;;;;;12.00;4.43;;;9.10;99.90;;;;;;5015088;28;20848;-87
2024/02/21 08:55:48;;;;;;;15.90;6.60;;;9.10;99.90;;;;;;5011608;28;20862;-87
2024/02/21 08:58:33;;;;;;;8.23;5.07;;;9.10;99.90;;;;;;5014835;28;20455;-86
2024/02/21 09:01:19;;;;;;;17.50;5.90;;;9.00;99.90;;;;;;5009440;28;20466;-86
2024/02/21 09:04:07;;;;;;;12.20;5.37;;;9.00;99.90;;;;;;5011937;28;20443;-88
2024/02/21 09:06:53;;;;;;;13.10;5.07;;;9.10;99.90;;;;;;5012939;28;20533;-86
2024/02/21 09:09:39;;;;;;;17.33;5.10;;;9.10;99.90;;;;;;5009150;28;20790;-87
2024/02/21 09:12:25;;;;;;;11.53;4.67;;;9.20;99.90;;;;;;5013143;28;20449;-86
2024/02/21 09:15:11;;;;;;;13.90;4.87;;;9.30;99.90;;;;;;5010810;28;20620;-85
2024/02/21 09:17:57;;;;;;;18.47;4.23;;;9.40;99.90;;;;;;5009479;28;20488;-86
2024/02/21 09:20:44;;;;;;;17.97;4.73;;;9.40;99.90;;;;;;5009411;28;20431;-87
2024/02/21 09:23:31;;;;;;;10.60;4.83;;;9.50;99.90;;;;;;5011661;28;20474;-86
2024/02/21 09:26:17;;;;;;;14.10;3.90;;;9.60;99.90;;;;;;5018180;28;20451;-86
2024/02/21 09:29:03;;;;;;;16.77;4.60;;;9.70;99.90;;;;;;5012474;28;20539;-87
2024/02/21 09:31:49;;;;;;;9.77;3.67;;;9.80;99.90;;;;;;5013332;28;20495;-86
2024/02/21 09:34:35;;;;;;;16.20;4.90;;;9.90;99.90;;;;;;5019079;28;20565;-87
2024/02/21 09:37:22;;;;;;;17.70;4.53;;;10.00;99.90;;;;;;5014158;28;20587;-87
2024/02/21 09:40:08;;;;;;;18.27;5.10;;;10.10;99.90;;;;;;5014064;28;20587;-87
2024/02/21 09:43:04;;;;;;;16.80;4.37;;;10.10;99.90;;;;;;5014852;28;20522;-86
2024/02/21 09:45:55;;;;;;;10.30;4.47;;;10.10;99.90;;;;;;5012187;28;20433;-86
2024/02/21 09:48:55;;;;;;;13.17;3.93;;;10.20;99.90;;;;;;5015338;28;20463;-86
2024/02/21 09:51:42;;;;;;;16.27;3.87;;;10.20;99.90;;;;;;5012326;28;20623;-87
2024/02/21 09:54:31;;;;;;;13.33;3.73;;;10.30;99.90;;;;;;5011611;28;21614;-86
2024/02/21 09:57:17;;;;;;;17.03;4.57;;;10.40;99.90;;;;;;5009444;28;20450;-86
2024/02/21 10:00:07;;;;;;;16.13;4.33;;;10.50;99.90;;;;;;5008067;28;20468;-86
2024/02/21 10:02:53;;;;;;;18.07;4.70;;;10.60;99.90;;;;;;5015609;28;20468;-87
2024/02/21 10:05:39;;;;;;;13.93;4.30;;;10.70;99.90;;;;;;5015423;28;20966;-87
2024/02/21 10:08:25;;;;;;;24.37;5.37;;;10.70;99.90;;;;;;5014639;28;20502;-87
2024/02/21 10:11:11;;;;;;;9.63;5.00;;;10.60;99.90;;;;;;5013560;28;20623;-87
2024/02/21 10:14:04;;;;;;;9.70;3.77;;;10.60;99.90;;;;;;5014044;28;20442;-87
2024/02/21 10:16:58;;;;;;;13.23;4.37;;;10.70;99.90;;;;;;5010436;28;20528;-88
2024/02/21 10:19:52;;;;;;;11.13;4.17;;;10.80;99.90;;;;;;5068129;27;20568;-75
2024/02/21 10:22:39;;;;;;;19.90;3.93;;;10.80;99.90;;;;;;5065523;28;20444;-75
2024/02/21 10:25:24;;;;;;;11.77;4.50;;;10.80;99.90;;;;;;5045604;28;20458;-74
2024/02/21 10:28:14;;;;;;;17.17;5.00;;;10.80;99.90;;;;;;5048812;28;20470;-74
2024/02/21 10:31:00;;;;;;;9.60;4.60;;;10.90;99.90;;;;;;5047781;28;20462;-75
2024/02/21 10:33:45;;;;;;;7.93;3.80;;;11.00;99.90;;;;;;5044987;28;21035;-75
2024/02/21 10:36:32;;;;;;;9.30;3.83;;;11.10;99.90;;;;;;5048222;28;20815;-74
2024/02/21 10:39:18;;;;;;;12.17;4.20;;;11.20;99.90;;;;;;5045495;28;20625;-74
2024/02/21 10:42:05;;;;;;;7.63;3.90;;;11.30;99.90;;;;;;5048922;28;21010;-75
2024/02/21 10:44:53;;;;;;;10.30;4.63;;;11.30;99.90;;;;;;5047783;28;20461;-75
2024/02/21 10:47:40;;;;;;;17.80;4.47;;;11.50;99.90;;;;;;5047214;28;20606;-74
2024/02/21 10:50:29;;;;;;;12.40;4.10;;;11.70;99.90;;;;;;5049189;28;20442;-74
2024/02/21 10:53:24;;;;;;;13.13;3.80;;;11.70;99.90;;;;;;5047940;28;20935;-75
2024/02/21 10:56:22;;;;;;;14.77;4.00;;;11.70;99.90;;;;;;5032656;28;21282;-75
2024/02/21 10:59:10;;;;;;;9.57;3.50;;;11.60;99.90;;;;;;5037285;28;20478;-75
2024/02/21 11:01:55;;;;;;;8.97;4.13;;;11.50;99.90;;;;;;5030964;28;20585;-75
2024/02/21 11:04:42;;;;;;;8.33;4.10;;;11.60;99.90;;;;;;5045227;28;20910;-75
2024/02/21 11:07:28;;;;;;;9.10;3.77;;;11.60;99.90;;;;;;5044475;28;20429;-75
2024/02/21 11:10:24;;;;;;;16.60;4.00;;;11.50;99.90;;;;;;5043735;28;20446;-74
2024/02/21 11:13:10;;;;;;;10.90;3.60;;;11.60;99.90;;;;;;5042439;28;20836;-74
2024/02/21 11:16:06;;;;;;;11.63;3.93;;;11.70;99.90;;;;;;5038966;28;20462;-74
2024/02/21 11:18:51;;;;;;;12.10;4.80;;;11.70;99.90;;;;;;5020787;22;20488;-74
2024/02/21 11:21:38;;;;;;;16.23;3.90;;;11.60;99.90;;;;;;4996981;28;21079;-75
2024/02/21 11:24:30;;;;;;;10.43;3.33;;;11.60;99.90;;;;;;5001608;28;20482;-75
2024/02/21 11:27:20;;;;;;;14.30;3.50;;;11.60;99.90;;;;;;5002005;28;20836;-75
2024/02/21 11:30:07;;;;;;;44.10;4.47;;;11.60;99.90;;;;;;4996653;28;20488;-75
2024/02/21 11:33:00;;;;;;;10.30;3.80;;;11.70;99.90;;;;;;4991112;28;21856;-75
2024/02/21 11:35:46;;;;;;;8.13;3.10;;;11.80;99.90;;;;;;4989100;28;20432;-76
2024/02/21 11:38:32;;;;;;;11.70;3.97;;;11.80;99.90;;;;;;4987955;28;20470;-75
2024/02/21 11:41:18;;;;;;;7.20;3.67;;;11.70;99.90;;;;;;4988159;28;20441;-74
2024/02/21 11:44:05;;;;;;;11.93;4.27;;;11.70;99.90;;;;;;4989909;28;20440;-74
2024/02/21 11:46:51;;;;;;;8.60;3.87;;;11.60;99.90;;;;;;4992654;28;20440;-75
2024/02/21 11:49:39;;;;;;;16.73;4.27;;;11.60;99.90;;;;;;4990171;28;20452;-75
2024/02/21 11:52:27;;;;;;;8.10;3.63;;;11.60;99.90;;;;;;4991006;28;20417;-74
2024/02/21 11:55:12;;;;;;;7.70;3.90;;;11.60;99.90;;;;;;4990973;28;21267;-74
2024/02/21 11:57:58;;;;;;;8.60;3.47;;;11.70;99.90;;;;;;4990087;28;20950;-75
2024/02/21 12:00:45;;;;;;;14.43;3.70;;;11.60;99.90;;;;;;4989831;28;20423;-75
2024/02/21 12:03:31;;;;;;;20.93;3.43;;;11.60;99.90;;;;;;4988566;28;20433;-74
2024/02/21 12:06:21;;;;;;;8.23;3.50;;;11.60;99.90;;;;;;4990690;28;20453;-75
2024/02/21 12:09:09;;;;;;;12.07;3.60;;;11.60;99.90;;;;;;4989074;28;20435;-74
2024/02/21 12:11:59;;;;;;;14.37;4.80;;;11.70;99.90;;;;;;4991359;28;21036;-75
2024/02/21 12:14:45;;;;;;;9.63;3.27;;;11.60;99.90;;;;;;4990659;28;20851;-74
2024/02/21 12:17:34;;;;;;;9.63;3.53;;;11.60;99.90;;;;;;4991368;28;20448;-75
2024/02/21 12:20:22;;;;;;;18.17;4.37;;;11.60;99.90;;;;;;4993413;28;20448;-74
2024/02/21 12:23:11;;;;;;;12.63;3.40;;;11.60;99.90;;;;;;4991603;28;20542;-74
2024/02/21 12:25:57;;;;;;;19.90;3.90;;;11.60;99.90;;;;;;4989284;28;20811;-75
2024/02/21 12:28:42;;;;;;;12.60;3.67;;;11.50;99.90;;;;;;4988325;28;20463;-74
2024/02/21 12:31:28;;;;;;;15.00;3.30;;;11.60;99.90;;;;;;4991810;28;20453;-75
2024/02/21 12:34:16;;;;;;;11.10;3.30;;;11.60;99.90;;;;;;4992364;28;20948;-74
2024/02/21 12:37:03;;;;;;;13.30;3.37;;;11.70;99.90;;;;;;4990651;28;20461;-74
2024/02/21 12:39:48;;;;;;;7.00;3.30;;;11.80;99.90;;;;;;4988668;28;20463;-75
2024/02/21 12:42:35;;;;;;;9.13;3.70;;;11.80;99.90;;;;;;4987909;28;20436;-74
2024/02/21 12:45:20;;;;;;;9.63;4.27;;;11.80;99.90;;;;;;4988624;28;20424;-75
2024/02/21 12:48:07;;;;;;;12.30;3.90;;;11.70;99.90;;;;;;4988534;28;20565;-74
2024/02/21 12:50:54;;;;;;;10.13;4.30;;;11.60;99.90;;;;;;4989678;28;20848;-75
2024/02/21 12:53:40;;;;;;;8.60;3.50;;;11.60;99.90;;;;;;4984082;28;20455;-74
2024/02/21 12:56:27;;;;;;;11.73;4.83;;;11.60;99.90;;;;;;4984354;28;20468;-73
2024/02/21 12:59:13;;;;;;;12.40;3.60;;;11.60;99.90;;;;;;4982171;28;20498;-73
2024/02/21 13:01:59;;;;;;;14.00;3.97;;;11.70;99.90;;;;;;4986474;28;20612;-75
2024/02/21 13:04:44;;;;;;;11.43;3.90;;;11.70;99.90;;;;;;4984870;28;21698;-73
2024/02/21 13:07:32;;;;;;;8.03;3.20;;;11.70;99.90;;;;;;4984319;28;21224;-72
2024/02/21 13:10:18;;;;;;;7.30;3.10;;;11.70;99.90;;;;;;4984411;28;20461;-74
2024/02/21 13:13:04;;;;;;;6.33;3.50;;;11.60;99.90;;;;;;4983748;28;20516;-74
2024/02/21 13:15:50;;;;;;;10.50;3.67;;;11.60;99.90;;;;;;4980353;28;20811;-74
2024/02/21 13:18:37;;;;;;;6.80;2.97;;;11.70;99.90;;;;;;4985638;28;20488;-74
2024/02/21 13:21:23;;;;;;;13.37;3.63;;;11.70;99.90;;;;;;4982302;28;20958;-74
2024/02/21 13:24:10;;;;;;;8.57;3.20;;;11.60;99.90;;;;;;4986055;28;21011;-74
2024/02/21 13:26:55;;;;;;;9.93;3.30;;;11.50;99.90;;;;;;4986796;28;20457;-75
2024/02/21 13:29:41;;;;;;;11.13;3.47;;;11.50;99.90;;;;;;4986480;28;21572;-73
2024/02/21 13:32:27;;;;;;;8.47;3.30;;;11.50;99.90;;;;;;4987602;28;20436;-74
2024/02/21 13:35:13;;;;;;;9.60;3.10;;;11.60;99.90;;;;;;4985354;28;20508;-74
2024/02/21 13:37:58;;;;;;;11.93;2.90;;;11.60;99.90;;;;;;4982086;28;20488;-74
2024/02/21 13:40:46;;;;;;;6.80;2.87;;;11.60;99.90;;;;;;4982243;28;20509;-74
2024/02/21 13:43:31;;;;;;;21.00;2.93;;;11.60;99.90;;;;;;4985106;28;20943;-73
2024/02/21 13:46:17;;;;;;;8.80;3.30;;;11.60;99.90;;;;;;4984532;28;21335;-74
2024/02/21 13:49:06;;;;;;;8.83;3.60;;;11.70;99.90;;;;;;4987954;28;20465;-74
2024/02/21 13:51:52;;;;;;;13.80;3.50;;;11.60;99.90;;;;;;4987813;28;20991;-74
2024/02/21 13:54:38;;;;;;;12.90;3.00;;;11.60;99.90;;;;;;4982921;28;20436;-74
2024/02/21 13:57:25;;;;;;;7.57;2.83;;;11.50;99.90;;;;;;4986328;28;20814;-74
2024/02/21 14:00:11;;;;;;;9.63;3.73;;;11.50;99.90;;;;;;4987644;28;20512;-74
2024/02/21 14:02:57;;;;;;;12.87;3.63;;;11.50;99.90;;;;;;4986614;28;20457;-74
2024/02/21 14:05:43;;;;;;;12.13;3.20;;;11.50;99.90;;;;;;4986318;28;20672;-74
2024/02/21 14:08:29;;;;;;;9.77;3.17;;;11.50;99.90;;;;;;4986501;28;20481;-75
2024/02/21 14:11:14;;;;;;;6.77;2.77;;;11.50;99.90;;;;;;4982968;28;20434;-74
2024/02/21 14:14:01;;;;;;;11.03;4.17;;;11.60;99.90;;;;;;4982000;28;20457;-74
2024/02/21 14:16:48;;;;;;;9.87;3.37;;;11.50;99.90;;;;;;4982978;28;20964;-74
2024/02/21 14:19:33;;;;;;;9.23;4.03;;;11.60;99.90;;;;;;4983800;28;20572;-73
2024/02/21 14:22:19;;;;;;;6.50;3.30;;;11.60;99.90;;;;;;4984046;28;20542;-74
2024/02/21 14:25:06;;;;;;;13.27;4.30;;;11.60;99.90;;;;;;4983765;28;20596;-74